Time;durP1;ratioP1;P1;durP2;ratioP2;P2;SDS_P1;SDS_P2;PMS_P1;PMS_P2;Temp;Humidity;BMP_temperature;BMP_pressure;BME280_temperature;BME280_humidity;BME280_pressure;Samples;Min_cycle;Max_cycle;Signal;HPM_P1;HPM_P2
2022/02/06 00:00:20;;;;;;;10.25;4.65;;;;;;;-1.44;58.14;93242.69;2067944;69;20206;-69
2022/02/06 00:02:49;;;;;;;9.10;4.85;;;;;;;-1.24;57.43;93254.50;2068066;69;20160;-71
2022/02/06 00:05:15;;;;;;;9.48;5.10;;;;;;;-1.15;57.20;93251.38;2067954;69;20141;-74
2022/02/06 00:07:41;;;;;;;9.15;4.80;;;;;;;-1.00;56.83;93251.69;2067940;69;20164;-71
2022/02/06 00:10:08;;;;;;;8.45;4.13;;;;;;;-0.97;56.82;93241.59;2068156;69;20148;-75
2022/02/06 00:12:34;;;;;;;8.38;3.70;;;;;;;-0.99;56.54;93233.84;2068162;69;20557;-70
2022/02/06 00:15:00;;;;;;;6.28;3.28;;;;;;;-0.94;55.21;93226.75;2068081;69;20176;-67
2022/02/06 00:17:30;;;;;;;5.38;3.05;;;;;;;-1.01;56.05;93225.31;2068051;69;20147;-66
2022/02/06 00:19:56;;;;;;;5.25;3.00;;;;;;;-1.02;56.15;93218.28;2067930;69;20152;-66
2022/02/06 00:30:24;;;;;;;6.68;3.13;;;;;;;-1.10;56.57;93214.63;2068049;69;20150;-75
2022/02/06 00:32:56;;;;;;;7.20;2.60;;;;;;;-0.98;56.92;93218.00;2068150;69;20140;-69
2022/02/06 00:35:31;;;;;;;5.93;2.60;;;;;;;-1.04;57.23;93205.00;2068049;69;20156;-67
2022/02/06 00:40:57;;;;;;;4.25;2.13;;;;;;;-1.36;57.87;93206.94;2068280;69;20137;-67
2022/02/06 00:43:17;;;;;;;6.07;2.65;;;;;;;-1.19;57.69;93209.47;2067973;69;20141;-67
2022/02/06 00:45:43;;;;;;;7.20;2.78;;;;;;;-1.31;57.52;93206.13;2068169;69;20191;-67
2022/02/06 00:48:09;;;;;;;4.65;2.70;;;;;;;-1.24;56.80;93208.28;2068104;69;20141;-72
2022/02/06 00:50:38;;;;;;;5.75;2.28;;;;;;;-1.30;56.88;93197.31;2068107;69;20136;-68
2022/02/06 00:53:07;;;;;;;5.80;2.47;;;;;;;-1.17;56.24;93193.13;2068100;69;20156;-70
2022/02/06 00:55:33;;;;;;;4.45;2.38;;;;;;;-1.11;56.74;93191.03;2068057;69;20203;-72
2022/02/06 00:57:59;;;;;;;6.88;2.80;;;;;;;-1.48;57.85;93189.00;2067961;69;20156;-71
2022/02/06 01:00:27;;;;;;;6.85;2.40;;;;;;;-1.27;57.18;93184.47;2068598;69;20137;-76
2022/02/06 01:02:53;;;;;;;4.13;2.28;;;;;;;-1.33;57.12;93181.78;2068514;69;20149;-74
2022/02/06 01:05:19;;;;;;;8.18;2.15;;;;;;;-1.26;57.05;93174.16;2065487;69;20152;-67
2022/02/06 01:07:44;;;;;;;3.95;2.17;;;;;;;-1.27;57.20;93178.19;2070211;69;20179;-70
2022/02/06 01:10:11;;;;;;;3.25;1.90;;;;;;;-1.17;56.86;93179.31;2069051;69;20132;-69
2022/02/06 01:12:40;;;;;;;4.82;2.33;;;;;;;-1.42;57.34;93171.09;2068695;69;20623;-66
2022/02/06 01:15:12;;;;;;;6.68;2.67;;;;;;;-1.48;58.02;93184.22;2065377;69;20592;-68
2022/02/06 01:17:43;;;;;;;4.20;2.20;;;;;;;-1.63;58.69;93167.34;2068439;69;20133;-68
2022/02/06 01:20:27;;;;;;;4.70;2.30;;;;;;;-1.31;57.35;93170.94;2068670;69;20205;-67
2022/02/06 01:23:05;;;;;;;6.75;2.58;;;;;;;-1.32;56.63;93166.69;2068635;69;20129;-67
2022/02/06 01:25:38;;;;;;;3.60;2.30;;;;;;;-1.32;58.18;93158.41;2065184;69;20314;-68
2022/02/06 01:28:11;;;;;;;;;;;;;;;-1.40;57.82;93173.34;2068669;69;20147;-67
2022/02/06 01:30:54;;;;;;;7.25;2.10;;;;;;;-1.35;57.33;93170.50;2065454;69;20048;-69
2022/02/06 01:33:27;;;;;;;4.30;1.65;;;;;;;-1.22;56.29;93158.03;2068599;69;20206;-65
2022/02/06 01:36:04;;;;;;;3.63;1.45;;;;;;;-1.08;56.03;93157.56;2068400;69;20211;-69
2022/02/06 01:39:26;;;;;;;5.13;1.83;;;;;;;-1.32;56.98;93152.16;2068564;69;20155;-69
2022/02/06 01:41:20;;;;;;;6.45;2.25;;;;;;;-1.36;57.09;93155.19;2066445;69;20140;-67
2022/02/06 01:43:52;;;;;;;4.75;1.90;;;;;;;-1.40;56.33;93154.75;2068572;69;20157;-74
2022/02/06 01:46:34;;;;;;;4.82;1.92;;;;;;;-1.36;56.58;93140.66;2068497;69;20206;-70
2022/02/06 02:03:13;;;;;;;3.95;1.50;;;;;;;-1.35;56.02;93131.09;2068650;69;20144;-74
2022/02/06 02:06:44;;;;;;;2.80;1.77;;;;;;;-1.42;56.62;93132.44;2068515;69;20161;-73
2022/02/06 02:09:15;;;;;;;3.78;1.80;;;;;;;-1.19;55.93;93119.06;2067595;69;20157;-77
2022/02/06 02:19:37;;;;;;;4.05;1.55;;;;;;;-1.36;55.88;93101.97;2065143;69;20152;-68
2022/02/06 02:33:19;;;;;;;2.75;1.58;;;;;;;-1.41;56.74;93098.03;2068506;69;20655;-76
2022/02/06 02:46:36;;;;;;;3.60;1.80;;;;;;;-1.47;55.41;93085.56;2068320;69;20206;-73
2022/02/06 02:49:02;;;;;;;2.45;1.60;;;;;;;-1.58;56.47;93069.88;2068479;69;20137;-74
2022/02/06 02:51:34;;;;;;;3.60;1.50;;;;;;;-1.48;56.36;93073.75;2068290;69;20500;-76
2022/02/06 02:54:06;;;;;;;2.72;1.50;;;;;;;-1.37;55.70;93067.34;2069608;69;20653;-68
2022/02/06 02:59:54;;;;;;;2.90;1.40;;;;;;;-1.32;55.04;93072.03;2064923;69;20145;-75
2022/02/06 03:01:56;;;;;;;4.38;1.45;;;;;;;-1.54;55.54;93076.59;2067262;69;20144;-69
2022/02/06 03:04:22;;;;;;;5.10;1.80;;;;;;;-1.87;57.04;93080.56;2068125;69;20203;-70
2022/02/06 03:06:48;;;;;;;3.67;2.00;;;;;;;-2.07;57.11;93073.50;2068233;69;20191;-72
2022/02/06 03:09:14;;;;;;;4.40;1.80;;;;;;;-1.90;57.49;93061.53;2068355;69;20371;-75
2022/02/06 03:11:40;;;;;;;3.08;1.75;;;;;;;-1.68;56.47;93069.53;2068281;69;20156;-67
2022/02/06 03:14:14;;;;;;;3.53;1.45;;;;;;;-1.68;56.23;93063.25;2068390;69;20145;-68
2022/02/06 03:16:48;;;;;;;2.63;1.83;;;;;;;-1.75;56.92;93061.09;2068357;69;20128;-71
2022/02/06 03:19:21;;;;;;;3.45;1.50;;;;;;;-1.70;56.76;93063.75;2068235;69;20153;-68
2022/02/06 03:21:51;;;;;;;3.45;1.65;;;;;;;-1.48;56.42;93065.47;2064859;69;20137;-67
2022/02/06 03:26:44;;;;;;;2.45;1.50;;;;;;;-1.71;57.41;93050.50;2068224;69;20129;-68
2022/02/06 03:29:10;;;;;;;2.53;1.70;;;;;;;-1.96;58.60;93064.38;2068241;69;20191;-68
2022/02/06 03:31:39;;;;;;;4.82;2.10;;;;;;;-1.92;58.48;93062.06;2068276;69;20176;-68
2022/02/06 03:34:05;;;;;;;3.17;1.58;;;;;;;-1.68;57.64;93061.25;2068275;69;20624;-68
2022/02/06 03:36:31;;;;;;;2.30;1.50;;;;;;;-1.71;57.33;93054.00;2067965;69;20140;-70
2022/02/06 03:38:56;;;;;;;3.13;1.65;;;;;;;-1.64;57.12;93052.66;2068292;69;20144;-70
2022/02/06 03:41:24;;;;;;;5.60;1.90;;;;;;;-1.80;57.45;93055.13;2064801;69;20156;-70
2022/02/06 03:44:01;;;;;;;5.53;1.85;;;;;;;-1.81;57.44;93053.63;2068163;69;20235;-70
2022/02/06 03:46:35;;;;;;;2.38;1.75;;;;;;;-1.91;57.78;93055.28;2068209;69;20267;-73
2022/02/06 03:49:10;;;;;;;5.47;1.92;;;;;;;-1.73;57.07;93039.97;2068288;69;20148;-73
2022/02/06 03:51:37;;;;;;;4.35;1.90;;;;;;;-1.72;56.89;93043.50;2068119;69;20276;-81
2022/02/06 03:54:05;;;;;;;2.63;1.30;;;;;;;-1.65;56.52;93043.66;2068301;69;20140;-74
2022/02/06 03:56:32;;;;;;;3.83;1.98;;;;;;;-1.97;58.22;93037.28;2068168;69;20152;-71
2022/02/06 03:59:00;;;;;;;6.28;1.80;;;;;;;-1.97;57.70;93046.31;2068366;69;20145;-73
2022/02/06 04:01:26;;;;;;;4.22;2.00;;;;;;;-1.82;57.23;93034.84;2068238;69;20227;-68
2022/02/06 04:03:51;;;;;;;3.22;1.80;;;;;;;-1.93;57.47;93027.44;2065001;69;20611;-67
2022/02/06 04:06:17;;;;;;;3.85;2.03;;;;;;;-1.87;56.85;93027.38;2067975;69;20156;-68
2022/02/06 04:08:43;;;;;;;2.92;2.00;;;;;;;-2.04;58.44;93022.06;2068102;69;20152;-68
2022/02/06 04:11:15;;;;;;;2.45;1.70;;;;;;;-2.00;58.56;93013.50;2068137;69;20203;-68
2022/02/06 04:13:57;;;;;;;7.72;1.83;;;;;;;-2.00;58.44;93005.97;2068253;69;20202;-67
2022/02/06 04:16:38;;;;;;;4.88;2.72;;;;;;;-2.09;58.59;93014.63;2065362;69;20145;-69
2022/02/06 04:19:26;;;;;;;4.75;1.92;;;;;;;-2.03;58.08;93012.53;2068090;69;20260;-68
2022/02/06 04:21:54;;;;;;;2.15;1.40;;;;;;;-1.88;57.94;93014.84;2068016;69;20155;-68
2022/02/06 04:24:23;;;;;;;4.18;1.90;;;;;;;-1.92;57.83;93011.66;2068120;69;20136;-69
2022/02/06 04:26:51;;;;;;;4.20;2.38;;;;;;;-1.95;57.61;93018.94;2068186;69;20148;-67
2022/02/06 04:29:18;;;;;;;4.32;2.08;;;;;;;-2.01;57.90;93012.78;2068043;69;20572;-68
2022/02/06 04:31:45;;;;;;;3.30;2.10;;;;;;;-2.07;58.32;93018.34;2068191;69;20152;-68
2022/02/06 04:34:11;;;;;;;5.53;2.75;;;;;;;-2.17;58.75;93013.72;2068409;69;20609;-70
2022/02/06 04:36:52;;;;;;;8.63;2.58;;;;;;;-2.15;58.21;93008.44;2068703;69;20149;-74
2022/02/06 04:47:52;;;;;;;3.15;1.88;;;;;;;-1.80;57.20;92990.88;2068648;69;20145;-77
2022/02/06 05:16:38;;;;;;;5.03;2.55;;;;;;;-1.93;59.06;92960.47;2068586;69;20224;-69
2022/02/06 05:29:49;;;;;;;4.30;1.98;;;;;;;-1.61;57.22;92952.22;2068857;69;20231;-76
2022/02/06 05:32:34;;;;;;;2.17;1.65;;;;;;;-1.52;57.41;92943.53;2068729;69;20651;-75
2022/02/06 05:35:00;;;;;;;3.00;2.03;;;;;;;-1.67;58.03;92948.81;2065815;69;20148;-77
2022/02/06 05:37:26;;;;;;;3.08;2.00;;;;;;;-1.79;58.86;92953.72;2068967;69;20149;-76
2022/02/06 05:39:53;;;;;;;5.20;2.63;;;;;;;-1.64;57.99;92954.03;2068718;69;20228;-78
2022/02/06 05:42:20;;;;;;;5.30;2.53;;;;;;;-1.50;57.72;92951.31;2068546;69;20153;-79
2022/02/06 05:44:53;;;;;;;4.93;3.25;;;;;;;-1.71;57.98;92956.63;2068512;69;20145;-76
2022/02/06 05:47:18;;;;;;;5.38;3.45;;;;;;;-1.70;58.24;92958.13;2068578;69;20206;-79
2022/02/06 05:49:44;;;;;;;4.72;3.33;;;;;;;-1.67;58.30;92955.06;2068498;69;20164;-68
2022/02/06 05:52:10;;;;;;;4.57;2.97;;;;;;;-1.56;58.02;92956.91;2068705;69;20229;-68
2022/02/06 05:54:36;;;;;;;5.28;2.40;;;;;;;-1.52;57.56;92951.06;2068721;69;20212;-69
2022/02/06 05:57:02;;;;;;;20.88;9.68;;;;;;;-1.70;58.28;92952.59;2068532;69;20148;-68
2022/02/06 05:59:28;;;;;;;12.45;6.88;;;;;;;-1.56;57.46;92949.38;2065276;69;20173;-72
2022/02/06 06:01:55;;;;;;;11.60;5.30;;;;;;;-1.74;58.62;92947.41;2065258;69;20620;-74
2022/02/06 06:04:21;;;;;;;10.23;4.93;;;;;;;-1.79;58.36;92948.22;2068397;69;20137;-75
2022/02/06 06:06:47;;;;;;;9.38;5.32;;;;;;;-1.64;58.59;92945.00;2068490;69;20523;-76
2022/02/06 06:09:12;;;;;;;6.47;3.95;;;;;;;-1.51;58.68;92955.31;2068605;69;20136;-74
2022/02/06 06:11:38;;;;;;;9.15;4.30;;;;;;;-1.64;58.21;92950.53;2068502;69;20607;-75
2022/02/06 06:14:04;;;;;;;8.30;4.78;;;;;;;-1.56;57.88;92951.38;2065210;69;20627;-79
2022/02/06 06:16:33;;;;;;;9.18;4.70;;;;;;;-1.45;57.94;92945.69;2068543;69;20148;-69
2022/02/06 06:19:00;;;;;;;6.30;3.85;;;;;;;-1.34;57.39;92950.28;2065261;69;20217;-76
2022/02/06 06:21:27;;;;;;;8.63;3.83;;;;;;;-1.27;56.94;92952.44;2065044;69;20152;-69
2022/02/06 06:23:55;;;;;;;17.58;10.00;;;;;;;-2.06;59.44;92955.66;2068512;69;20309;-72
2022/02/06 06:26:22;;;;;;;15.55;9.02;;;;;;;-1.69;59.02;92951.34;2068516;69;20141;-70
2022/02/06 06:28:48;;;;;;;19.50;9.10;;;;;;;-1.64;58.97;92956.03;2070285;69;20152;-68
2022/02/06 06:31:14;;;;;;;14.27;7.72;;;;;;;-1.40;58.03;92953.13;2069058;69;20148;-68
2022/02/06 06:33:40;;;;;;;13.63;8.20;;;;;;;-1.46;58.37;92946.22;2068522;69;20148;-70
2022/02/06 06:36:05;;;;;;;12.90;7.30;;;;;;;-1.36;57.63;92950.81;2068327;69;20527;-68
2022/02/06 06:38:35;;;;;;;10.30;4.72;;;;;;;-1.23;57.44;92943.84;2068467;69;20145;-74
2022/02/06 06:41:03;;;;;;;32.13;16.52;;;;;;;-1.77;58.98;92948.44;2068452;69;20688;-74
2022/02/06 06:43:29;;;;;;;25.20;12.57;;;;;;;-1.49;58.45;92953.53;2068462;69;20219;-74
2022/02/06 06:45:54;;;;;;;15.23;8.55;;;;;;;-1.38;57.85;92947.81;2068447;69;20226;-74
2022/02/06 06:48:20;;;;;;;17.30;8.50;;;;;;;-1.24;57.79;92936.78;2068404;69;20179;-69
2022/02/06 06:50:46;;;;;;;13.73;7.45;;;;;;;-1.16;57.73;92938.41;2068280;69;20144;-70
2022/02/06 06:53:13;;;;;;;16.65;7.90;;;;;;;-1.47;58.60;92939.19;2068353;69;20136;-73
2022/02/06 06:55:42;;;;;;;26.50;11.10;;;;;;;-1.34;57.90;92941.97;2068370;69;20140;-70
2022/02/06 06:58:19;;;;;;;19.15;9.70;;;;;;;-1.14;57.65;92951.72;2068375;69;20167;-69
2022/02/06 07:03:13;;;;;;;20.88;11.52;;;;;;;-1.01;57.51;92971.06;2068396;69;20273;-70
2022/02/06 07:05:39;;;;;;;16.20;8.88;;;;;;;-0.97;57.38;92971.47;2068469;69;20585;-69
2022/02/06 07:08:05;;;;;;;12.15;6.88;;;;;;;-1.07;58.42;92981.47;2068392;69;20176;-78
2022/02/06 07:10:31;;;;;;;12.35;6.57;;;;;;;-1.04;58.40;92977.66;2068419;69;20161;-74
2022/02/06 07:12:56;;;;;;;13.15;5.03;;;;;;;-1.39;59.01;92976.72;2068445;69;20206;-79
2022/02/06 07:15:22;;;;;;;9.65;5.70;;;;;;;-1.50;59.85;92976.91;2068352;69;20135;-77
2022/02/06 07:17:48;;;;;;;14.43;5.70;;;;;;;-1.20;58.67;92975.91;2068394;69;20178;-75
2022/02/06 07:20:13;;;;;;;16.70;6.20;;;;;;;-1.22;59.30;92970.91;2068349;69;20132;-76
2022/02/06 07:22:39;;;;;;;11.00;5.75;;;;;;;-0.89;58.33;92955.75;2068249;69;20144;-72
2022/02/06 07:25:06;;;;;;;7.95;4.60;;;;;;;-0.73;57.24;92956.75;2068320;69;20172;-79
2022/02/06 07:27:35;;;;;;;10.93;5.97;;;;;;;-0.97;57.52;92965.22;2068492;69;20144;-77
2022/02/06 07:30:05;;;;;;;13.15;6.53;;;;;;;-0.67;56.98;92968.44;2068310;69;20264;-68
2022/02/06 07:32:36;;;;;;;13.60;6.30;;;;;;;-0.52;56.62;92960.34;2068529;69;20195;-69
2022/02/06 07:35:06;;;;;;;16.42;7.35;;;;;;;-0.96;57.49;92972.22;2068224;69;20145;-69
2022/02/06 07:37:31;;;;;;;13.35;7.25;;;;;;;-0.67;57.57;92968.44;2065015;69;20227;-69
2022/02/06 07:39:57;;;;;;;11.07;5.90;;;;;;;-0.91;58.92;92963.84;2065030;69;20152;-68
2022/02/06 07:42:23;;;;;;;13.43;7.15;;;;;;;-1.07;59.04;92967.66;2068287;69;20594;-69
2022/02/06 07:44:55;;;;;;;;;;;;;;;-0.73;58.25;92972.56;2068442;69;20172;-70
2022/02/06 07:47:23;;;;;;;13.32;8.35;;;;;;;-0.68;58.07;92966.94;2068413;69;20048;-69
2022/02/06 07:49:51;;;;;;;15.35;6.78;;;;;;;-0.47;57.01;92961.50;2068235;69;20228;-71
2022/02/06 07:52:20;;;;;;;17.05;7.15;;;;;;;-0.33;56.81;92962.25;2064959;69;20241;-72
2022/02/06 07:54:46;;;;;;;21.88;8.68;;;;;;;-0.38;57.24;92958.31;2068287;69;20219;-69
2022/02/06 07:57:15;;;;;;;12.88;7.28;;;;;;;-0.72;57.22;92961.00;2068243;69;20743;-79
2022/02/06 07:59:41;;;;;;;22.02;10.07;;;;;;;-0.48;57.48;92964.81;2068311;69;20157;-73
2022/02/06 08:02:07;;;;;;;13.80;7.47;;;;;;;-0.37;56.69;92959.03;2064922;69;20172;-77
2022/02/06 08:04:35;;;;;;;12.52;7.18;;;;;;;-0.40;57.14;92952.56;2068200;69;20273;-76
2022/02/06 08:07:02;;;;;;;11.85;6.00;;;;;;;-0.48;56.39;92959.28;2068188;69;20508;-80
2022/02/06 08:12:13;;;;;;;16.25;6.68;;;;;;;-0.03;56.50;92950.81;2068907;69;20168;-76
2022/02/06 08:17:22;;;;;;;17.00;8.75;;;;;;;-0.10;57.18;92930.06;2070053;69;20222;-70
2022/02/06 08:19:48;;;;;;;19.25;8.75;;;;;;;0.01;57.20;92922.81;2069235;69;20631;-70
2022/02/06 08:22:14;;;;;;;15.90;8.90;;;;;;;0.09;57.27;92896.69;2069004;69;20634;-69
2022/02/06 08:24:40;;;;;;;13.20;7.30;;;;;;;0.23;56.45;92892.59;2068642;69;20240;-69
2022/02/06 08:27:06;;;;;;;18.15;8.70;;;;;;;-0.28;56.99;92895.72;2068827;69;20232;-70
2022/02/06 08:29:32;;;;;;;33.25;13.13;;;;;;;-0.23;57.71;92885.81;2068722;69;20140;-77
2022/02/06 08:31:58;;;;;;;17.08;8.43;;;;;;;-0.24;57.68;92881.56;2065399;69;20515;-75
2022/02/06 08:34:24;;;;;;;12.95;6.43;;;;;;;-0.04;56.31;92863.53;2065351;69;20256;-72
2022/02/06 08:36:49;;;;;;;12.20;5.80;;;;;;;0.08;55.41;92866.75;2068941;69;20640;-77
2022/02/06 08:39:15;;;;;;;11.52;6.28;;;;;;;0.43;55.50;92859.88;2068773;69;20156;-77
2022/02/06 08:41:41;;;;;;;9.98;5.60;;;;;;;0.78;55.47;92880.69;2068839;69;20597;-76
2022/02/06 08:44:08;;;;;;;13.50;6.30;;;;;;;1.07;55.76;92875.13;2068744;69;20578;-79
2022/02/06 08:46:36;;;;;;;13.13;5.93;;;;;;;1.24;54.44;92869.88;2068689;69;20179;-72
2022/02/06 08:49:02;;;;;;;12.25;5.75;;;;;;;1.69;54.29;92860.28;2068655;69;20137;-77
2022/02/06 08:51:28;;;;;;;10.77;5.32;;;;;;;2.05;54.51;92854.63;2068574;69;20513;-70
2022/02/06 08:53:54;;;;;;;11.05;4.88;;;;;;;2.43;53.28;92854.72;2068677;69;20545;-69
2022/02/06 08:56:19;;;;;;;14.48;6.55;;;;;;;2.61;52.26;92844.53;2068742;69;20148;-69
2022/02/06 08:58:45;;;;;;;10.85;6.50;;;;;;;3.00;50.79;92834.88;2068800;69;20184;-75
2022/02/06 09:01:11;;;;;;;29.02;14.65;;;;;;;3.00;49.27;92850.81;2068684;69;20144;-79
2022/02/06 09:03:36;;;;;;;16.88;6.47;;;;;;;2.97;49.20;92847.09;2068616;69;20586;-74
2022/02/06 09:06:02;;;;;;;20.88;8.85;;;;;;;2.88;49.55;92844.88;2068593;69;20583;-78
2022/02/06 09:08:28;;;;;;;15.55;7.63;;;;;;;3.68;49.33;92843.59;2068599;69;20152;-74
2022/02/06 09:10:55;;;;;;;14.07;7.50;;;;;;;4.09;49.89;92845.09;2068786;69;20191;-75
2022/02/06 09:13:20;;;;;;;14.43;7.57;;;;;;;4.35;45.45;92846.59;2069751;69;20585;-75
2022/02/06 09:15:46;;;;;;;22.48;8.13;;;;;;;4.03;46.54;92848.09;2069352;69;20136;-74
2022/02/06 09:18:11;;;;;;;17.38;8.00;;;;;;;4.30;46.70;92837.13;2069160;69;20236;-73
2022/02/06 09:20:37;;;;;;;11.18;5.40;;;;;;;4.69;44.96;92834.09;2068848;69;20131;-75
2022/02/06 09:23:03;;;;;;;7.80;4.05;;;;;;;4.99;43.33;92835.88;2069488;69;20178;-74
2022/02/06 09:25:29;;;;;;;11.13;5.53;;;;;;;5.30;43.81;92842.66;2069220;69;20140;-70
2022/02/06 09:27:54;;;;;;;21.02;6.68;;;;;;;5.40;42.84;92828.78;2068594;69;20356;-69
2022/02/06 09:30:25;;;;;;;19.88;7.45;;;;;;;5.45;41.05;92824.28;2068538;69;20157;-72
2022/02/06 09:35:18;;;;;;;14.07;6.70;;;;;;;6.07;43.55;92809.03;2065282;69;20583;-73
2022/02/06 09:37:43;;;;;;;16.13;8.52;;;;;;;5.72;41.66;92774.81;2068634;69;20141;-70
2022/02/06 09:40:13;;;;;;;18.55;9.30;;;;;;;5.85;41.56;92779.31;2065228;69;20237;-74
2022/02/06 09:42:42;;;;;;;16.58;8.40;;;;;;;6.28;41.63;92771.50;2068457;69;20137;-70
2022/02/06 09:45:11;;;;;;;15.57;7.60;;;;;;;6.69;40.35;92768.97;2068649;69;20228;-69
2022/02/06 09:47:37;;;;;;;8.40;4.55;;;;;;;6.91;40.13;92758.72;2068492;69;20604;-69
2022/02/06 09:50:04;;;;;;;12.43;4.78;;;;;;;6.90;41.05;92744.00;2068397;69;20159;-73
2022/02/06 09:52:30;;;;;;;10.50;4.90;;;;;;;7.32;37.84;92752.00;2068503;69;20159;-76
2022/02/06 09:55:04;;;;;;;20.92;5.68;;;;;;;6.50;37.23;92738.88;2068485;69;20148;-77
2022/02/06 09:57:39;;;;;;;11.02;4.75;;;;;;;7.33;39.18;92725.50;2068521;69;20199;-71
2022/02/06 10:00:07;;;;;;;7.65;4.65;;;;;;;6.59;37.63;92727.72;2068530;69;20172;-70
2022/02/06 10:02:36;;;;;;;11.25;5.78;;;;;;;7.13;39.80;92721.19;2065195;69;20600;-68
2022/02/06 10:05:03;;;;;;;19.00;7.20;;;;;;;7.14;36.75;92728.25;2071791;69;20145;-68
2022/02/06 10:07:43;;;;;;;8.55;4.00;;;;;;;7.87;36.47;92719.53;2069392;69;20516;-68
2022/02/06 10:10:11;;;;;;;8.98;4.18;;;;;;;8.29;35.70;92715.44;2068601;69;20144;-68
2022/02/06 10:12:42;;;;;;;6.78;3.63;;;;;;;8.17;34.00;92711.06;2068679;69;20145;-77
2022/02/06 10:15:26;;;;;;;8.98;4.40;;;;;;;8.84;36.01;92707.22;2068538;69;20235;-77
2022/02/06 10:17:51;;;;;;;18.08;7.53;;;;;;;8.57;36.70;92699.09;2068515;69;20235;-76
2022/02/06 10:20:23;;;;;;;14.35;6.00;;;;;;;8.25;34.39;92701.13;2065025;69;20604;-77
2022/02/06 10:22:58;;;;;;;25.05;11.40;;;;;;;7.90;35.04;92701.53;2068433;69;20140;-71
2022/02/06 10:25:25;;;;;;;12.35;5.40;;;;;;;9.14;34.92;92691.66;2068493;69;20143;-73
2022/02/06 10:28:04;;;;;;;9.18;4.78;;;;;;;8.38;33.39;92692.25;2068479;69;20177;-77
2022/02/06 10:30:42;;;;;;;12.68;6.57;;;;;;;9.01;33.95;92692.19;2068489;69;20152;-73
2022/02/06 10:33:13;;;;;;;13.40;6.65;;;;;;;8.62;36.00;92684.03;2068433;69;20172;-73
2022/02/06 10:35:44;;;;;;;17.35;7.82;;;;;;;10.17;34.14;92677.09;2068570;69;20148;-82
2022/02/06 10:38:18;;;;;;;10.80;5.95;;;;;;;10.95;32.37;92665.63;2068467;69;20152;-72
2022/02/06 10:41:01;;;;;;;8.10;5.00;;;;;;;11.18;32.82;92662.03;2068452;69;20203;-71
2022/02/06 10:43:26;;;;;;;8.20;5.03;;;;;;;10.79;29.75;92654.13;2068543;69;20187;-73
2022/02/06 10:46:13;;;;;;;10.73;5.70;;;;;;;10.36;31.59;92651.59;2068447;69;20253;-79
2022/02/06 10:48:53;;;;;;;8.50;5.13;;;;;;;10.28;32.08;92641.91;2068460;69;20137;-78
2022/02/06 10:51:40;;;;;;;10.05;5.57;;;;;;;11.23;30.52;92623.53;2068340;69;20248;-78
2022/02/06 10:54:09;;;;;;;7.75;4.78;;;;;;;11.40;29.87;92606.91;2068567;69;20606;-77
2022/02/06 10:56:40;;;;;;;6.80;4.00;;;;;;;12.16;29.97;92594.13;2068380;69;20148;-74
2022/02/06 10:59:07;;;;;;;6.70;4.22;;;;;;;13.13;28.76;92587.09;2068406;69;20271;-76
2022/02/06 11:01:42;;;;;;;6.30;4.03;;;;;;;13.66;28.46;92581.19;2068316;69;20498;-76
2022/02/06 11:04:29;;;;;;;8.00;3.95;;;;;;;11.52;28.40;92575.84;2068545;69;20497;-81
2022/02/06 11:07:19;;;;;;;7.75;3.80;;;;;;;11.85;29.63;92577.66;2068275;69;20153;-71
2022/02/06 11:09:45;;;;;;;6.18;3.88;;;;;;;12.16;29.97;92574.38;2068381;69;20611;-72
2022/02/06 11:12:19;;;;;;;14.10;4.25;;;;;;;12.68;28.34;92581.28;2068413;69;20295;-74
2022/02/06 11:14:51;;;;;;;18.25;8.35;;;;;;;12.50;29.38;92583.16;2068423;69;20151;-73
2022/02/06 11:17:26;;;;;;;9.07;5.68;;;;;;;13.41;28.24;92581.38;2068376;69;20145;-76
2022/02/06 11:20:06;;;;;;;8.82;3.50;;;;;;;14.52;26.35;92573.06;2068228;69;20275;-75
2022/02/06 11:22:33;;;;;;;3.92;2.85;;;;;;;14.83;26.71;92549.63;2068303;69;20159;-71
2022/02/06 11:24:59;;;;;;;4.45;3.05;;;;;;;15.12;25.69;92537.34;2068326;69;20214;-72
2022/02/06 11:27:27;;;;;;;5.10;2.70;;;;;;;15.20;25.45;92524.25;2068340;69;20221;-74
2022/02/06 11:29:54;;;;;;;2.80;2.30;;;;;;;15.80;25.55;92503.91;2068312;69;20619;-72
2022/02/06 11:32:22;;;;;;;4.00;2.17;;;;;;;16.32;22.96;92490.97;2062270;69;20156;-73
2022/02/06 11:34:47;;;;;;;6.93;3.60;;;;;;;11.41;27.54;92504.09;2068112;69;20279;-68
2022/02/06 11:45:57;;;;;;;6.30;3.50;;;;;;;10.72;30.10;92488.25;2068537;69;20157;-74
2022/02/06 11:48:28;;;;;;;6.03;3.35;;;;;;;11.45;30.51;92476.16;2068318;69;20148;-77
2022/02/06 11:50:54;;;;;;;4.93;3.30;;;;;;;11.30;28.26;92465.44;2068175;69;20140;-71
2022/02/06 11:53:29;;;;;;;4.05;2.78;;;;;;;11.24;28.05;92465.13;2065967;69;20152;-69
2022/02/06 11:55:56;;;;;;;4.15;3.10;;;;;;;12.16;28.73;92458.69;2068983;69;20163;-70
2022/02/06 11:58:28;;;;;;;4.97;3.08;;;;;;;11.94;27.48;92446.97;2068423;69;20152;-68
2022/02/06 12:01:05;;;;;;;15.65;6.32;;;;;;;10.46;27.58;92436.84;2068235;69;20141;-69
2022/02/06 12:04:01;;;;;;;9.77;5.32;;;;;;;12.06;27.74;92422.22;2068143;69;20147;-68
2022/02/06 12:06:49;;;;;;;7.07;3.83;;;;;;;12.28;27.42;92422.63;2065644;69;20168;-69
2022/02/06 12:09:21;;;;;;;6.53;3.70;;;;;;;10.33;28.47;92413.63;2068192;69;20156;-69
2022/02/06 12:12:11;;;;;;;13.43;3.57;;;;;;;11.17;29.58;92406.97;2068234;69;20601;-70
2022/02/06 12:14:44;;;;;;;8.13;4.10;;;;;;;11.23;29.35;92407.31;2066784;69;20175;-72
2022/02/06 12:17:36;;;;;;;9.02;4.95;;;;;;;11.82;29.01;92398.34;2065062;69;20144;-69
2022/02/06 12:20:13;;;;;;;8.95;4.10;;;;;;;12.17;27.70;92393.13;2068039;69;20144;-74
2022/02/06 12:22:47;;;;;;;9.65;5.93;;;;;;;12.45;27.79;92390.97;2068200;69;20186;-76
2022/02/06 12:25:35;;;;;;;7.07;3.25;;;;;;;11.54;26.54;92367.34;2068180;69;20228;-75
2022/02/06 12:28:14;;;;;;;7.18;4.50;;;;;;;12.30;29.40;92359.88;2068182;69;20243;-75
2022/02/06 12:30:41;;;;;;;7.53;3.72;;;;;;;11.17;27.03;92354.16;2068218;69;20148;-70
2022/02/06 12:33:42;;;;;;;8.65;4.10;;;;;;;11.73;28.57;92351.38;2068084;69;20148;-72
2022/02/06 12:39:39;;;;;;;8.13;4.80;;;;;;;11.03;29.26;92335.78;2057101;69;20184;-70
2022/02/06 12:42:11;;;;;;;9.45;4.90;;;;;;;11.30;30.78;92327.34;2057082;69;20607;-68
2022/02/06 12:44:37;;;;;;;9.00;5.32;;;;;;;10.96;30.37;92326.28;2062653;69;20582;-72
2022/02/06 12:47:12;;;;;;;11.77;5.25;;;;;;;10.54;30.19;92325.47;2065347;69;20148;-68
2022/02/06 12:49:39;;;;;;;9.52;5.50;;;;;;;10.80;31.14;92312.06;2070972;69;20144;-71
2022/02/06 12:52:05;;;;;;;9.13;4.72;;;;;;;10.98;31.10;92315.13;2071230;69;20244;-72
2022/02/06 12:54:31;;;;;;;12.80;5.82;;;;;;;9.61;32.26;92318.81;2071379;69;20673;-72
2022/02/06 12:56:59;;;;;;;8.10;5.50;;;;;;;10.41;32.08;92309.25;2071784;69;20567;-74
2022/02/06 12:59:27;;;;;;;13.38;4.90;;;;;;;10.52;32.07;92304.91;2071863;69;20152;-71
2022/02/06 13:01:56;;;;;;;6.55;3.95;;;;;;;11.04;32.30;92298.56;2071616;69;20176;-69
2022/02/06 13:04:28;;;;;;;5.38;3.50;;;;;;;10.81;31.44;92301.53;2071747;69;20156;-71
2022/02/06 13:07:01;;;;;;;12.05;5.47;;;;;;;8.72;32.96;92314.25;2071775;69;20293;-70
2022/02/06 13:09:35;;;;;;;7.82;5.10;;;;;;;10.01;32.72;92302.06;2071875;69;20129;-69
2022/02/06 13:12:14;;;;;;;11.15;6.70;;;;;;;10.43;33.24;92306.53;2071865;69;20148;-69
2022/02/06 13:30:20;;;;;;;8.95;5.28;;;;;;;10.24;32.57;92253.41;2071801;69;20532;-72
2022/02/06 13:38:17;;;;;;;10.48;5.38;;;;;;;9.96;31.87;92275.06;2067475;69;20233;-70
2022/02/06 13:40:48;;;;;;;12.30;6.47;;;;;;;10.02;34.66;92258.53;2071825;69;20180;-71
2022/02/06 13:43:26;;;;;;;10.63;5.38;;;;;;;10.09;33.78;92266.69;2073435;69;20261;-70
2022/02/06 13:45:56;;;;;;;16.38;8.50;;;;;;;9.27;32.50;92255.72;2072372;69;20618;-70
2022/02/06 13:48:24;;;;;;;15.57;7.90;;;;;;;9.66;34.42;92250.25;2071702;69;20249;-73
2022/02/06 13:50:55;;;;;;;16.20;6.57;;;;;;;9.55;34.10;92251.03;2071718;69;20140;-73
2022/02/06 13:53:28;;;;;;;12.63;6.93;;;;;;;9.70;34.71;92221.63;2071822;69;20151;-69
2022/02/06 13:56:10;;;;;;;11.45;6.47;;;;;;;9.26;33.79;92231.81;2071851;69;20604;-76
2022/02/06 13:58:35;;;;;;;10.25;5.63;;;;;;;9.36;34.94;92221.16;2068810;69;20168;-74
2022/02/06 14:01:07;;;;;;;13.00;6.30;;;;;;;9.51;35.76;92191.78;2071579;69;20172;-72
2022/02/06 14:04:02;;;;;;;26.52;15.18;;;;;;;8.04;36.16;92188.03;2071652;69;20136;-75
2022/02/06 14:06:41;;;;;;;32.00;17.02;;;;;;;8.50;37.63;92178.22;2056708;69;20150;-70
2022/02/06 14:09:24;;;;;;;19.38;11.02;;;;;;;8.86;35.37;92185.97;2057194;69;20629;-70
2022/02/06 14:12:04;;;;;;;13.98;7.88;;;;;;;8.31;33.73;92207.94;2057166;69;20602;-71
2022/02/06 14:14:32;;;;;;;15.95;7.40;;;;;;;8.84;36.25;92187.91;2057117;69;20147;-75